sensor_id;sensor_type;location;lat;lon;timestamp;P1;durP1;ratioP1;P2;durP2;ratioP2
33954;SDS011;20233;50.804;7.126;2023-04-19T00:02:16;5.18;;;2.63;;
33954;SDS011;20233;50.804;7.126;2023-04-19T00:04:42;4.53;;;2.50;;
33954;SDS011;20233;50.804;7.126;2023-04-19T00:07:09;4.20;;;2.90;;
33954;SDS011;20233;50.804;7.126;2023-04-19T00:09:35;4.15;;;2.60;;
33954;SDS011;20233;50.804;7.126;2023-04-19T00:12:01;3.72;;;2.25;;
33954;SDS011;20233;50.804;7.126;2023-04-19T00:14:27;5.32;;;2.95;;
33954;SDS011;20233;50.804;7.126;2023-04-19T00:16:52;4.00;;;3.05;;
33954;SDS011;20233;50.804;7.126;2023-04-19T00:19:18;4.75;;;2.90;;
33954;SDS011;20233;50.804;7.126;2023-04-19T00:21:43;5.93;;;2.65;;
33954;SDS011;20233;50.804;7.126;2023-04-19T00:24:09;4.57;;;2.60;;
33954;SDS011;20233;50.804;7.126;2023-04-19T00:26:34;3.65;;;2.65;;
33954;SDS011;20233;50.804;7.126;2023-04-19T00:29:00;4.90;;;2.70;;
33954;SDS011;20233;50.804;7.126;2023-04-19T00:31:26;3.70;;;2.33;;
33954;SDS011;20233;50.804;7.126;2023-04-19T00:33:51;4.03;;;2.53;;
33954;SDS011;20233;50.804;7.126;2023-04-19T00:36:17;3.35;;;2.42;;
33954;SDS011;20233;50.804;7.126;2023-04-19T00:38:42;5.15;;;3.20;;
33954;SDS011;20233;50.804;7.126;2023-04-19T00:41:08;4.38;;;2.80;;
33954;SDS011;20233;50.804;7.126;2023-04-19T00:43:33;4.25;;;2.63;;
33954;SDS011;20233;50.804;7.126;2023-04-19T00:45:59;4.75;;;2.90;;
33954;SDS011;20233;50.804;7.126;2023-04-19T00:48:24;5.10;;;3.33;;
33954;SDS011;20233;50.804;7.126;2023-04-19T00:50:50;3.80;;;2.78;;
33954;SDS011;20233;50.804;7.126;2023-04-19T00:53:16;5.78;;;3.22;;
33954;SDS011;20233;50.804;7.126;2023-04-19T00:55:41;6.55;;;3.15;;
33954;SDS011;20233;50.804;7.126;2023-04-19T00:58:07;3.92;;;2.33;;
33954;SDS011;20233;50.804;7.126;2023-04-19T01:00:33;6.15;;;3.35;;
33954;SDS011;20233;50.804;7.126;2023-04-19T01:02:59;4.63;;;2.72;;
33954;SDS011;20233;50.804;7.126;2023-04-19T01:05:25;6.22;;;3.08;;
33954;SDS011;20233;50.804;7.126;2023-04-19T01:07:51;5.55;;;2.80;;
33954;SDS011;20233;50.804;7.126;2023-04-19T01:10:17;4.07;;;2.67;;
33954;SDS011;20233;50.804;7.126;2023-04-19T01:12:42;5.43;;;3.00;;
33954;SDS011;20233;50.804;7.126;2023-04-19T01:15:08;4.60;;;3.25;;
33954;SDS011;20233;50.804;7.126;2023-04-19T01:17:34;4.10;;;3.00;;
33954;SDS011;20233;50.804;7.126;2023-04-19T01:20:00;6.35;;;3.28;;
33954;SDS011;20233;50.804;7.126;2023-04-19T01:22:27;4.85;;;3.35;;
33954;SDS011;20233;50.804;7.126;2023-04-19T01:24:54;4.53;;;2.97;;
33954;SDS011;20233;50.804;7.126;2023-04-19T01:27:21;5.18;;;2.95;;
33954;SDS011;20233;50.804;7.126;2023-04-19T01:29:47;6.38;;;3.60;;
33954;SDS011;20233;50.804;7.126;2023-04-19T01:32:13;4.90;;;3.45;;
33954;SDS011;20233;50.804;7.126;2023-04-19T01:34:39;6.53;;;3.20;;
33954;SDS011;20233;50.804;7.126;2023-04-19T01:37:05;6.30;;;3.65;;
33954;SDS011;20233;50.804;7.126;2023-04-19T01:39:31;5.05;;;3.35;;
33954;SDS011;20233;50.804;7.126;2023-04-19T01:41:57;5.05;;;3.75;;
33954;SDS011;20233;50.804;7.126;2023-04-19T01:44:22;5.38;;;3.40;;
33954;SDS011;20233;50.804;7.126;2023-04-19T01:46:48;6.30;;;4.32;;
33954;SDS011;20233;50.804;7.126;2023-04-19T01:49:13;6.40;;;3.75;;
33954;SDS011;20233;50.804;7.126;2023-04-19T01:51:40;8.95;;;4.85;;
33954;SDS011;20233;50.804;7.126;2023-04-19T01:54:05;6.82;;;4.18;;
33954;SDS011;20233;50.804;7.126;2023-04-19T01:56:31;6.68;;;4.07;;
33954;SDS011;20233;50.804;7.126;2023-04-19T01:58:57;7.43;;;4.75;;
33954;SDS011;20233;50.804;7.126;2023-04-19T02:01:22;7.55;;;4.45;;
33954;SDS011;20233;50.804;7.126;2023-04-19T02:03:48;8.13;;;4.30;;
33954;SDS011;20233;50.804;7.126;2023-04-19T02:06:14;7.05;;;4.60;;
33954;SDS011;20233;50.804;7.126;2023-04-19T02:08:40;6.53;;;4.88;;
33954;SDS011;20233;50.804;7.126;2023-04-19T02:11:07;8.23;;;5.60;;
33954;SDS011;20233;50.804;7.126;2023-04-19T02:13:33;7.50;;;4.80;;
33954;SDS011;20233;50.804;7.126;2023-04-19T02:15:59;7.13;;;4.97;;
33954;SDS011;20233;50.804;7.126;2023-04-19T02:18:28;8.85;;;5.38;;
33954;SDS011;20233;50.804;7.126;2023-04-19T02:20:54;10.15;;;5.45;;
33954;SDS011;20233;50.804;7.126;2023-04-19T02:23:20;8.93;;;5.57;;
33954;SDS011;20233;50.804;7.126;2023-04-19T02:25:46;9.48;;;6.13;;
33954;SDS011;20233;50.804;7.126;2023-04-19T02:28:11;7.45;;;5.50;;
33954;SDS011;20233;50.804;7.126;2023-04-19T02:30:37;9.07;;;5.63;;
33954;SDS011;20233;50.804;7.126;2023-04-19T02:33:02;7.55;;;5.20;;
33954;SDS011;20233;50.804;7.126;2023-04-19T02:35:28;8.98;;;5.70;;
33954;SDS011;20233;50.804;7.126;2023-04-19T02:37:53;8.68;;;5.90;;
33954;SDS011;20233;50.804;7.126;2023-04-19T02:40:19;9.10;;;5.53;;
33954;SDS011;20233;50.804;7.126;2023-04-19T02:42:46;9.15;;;5.75;;
33954;SDS011;20233;50.804;7.126;2023-04-19T02:45:12;8.45;;;6.47;;
33954;SDS011;20233;50.804;7.126;2023-04-19T02:47:38;8.20;;;6.13;;
33954;SDS011;20233;50.804;7.126;2023-04-19T02:50:03;9.07;;;6.18;;
33954;SDS011;20233;50.804;7.126;2023-04-19T02:52:30;8.48;;;6.18;;
33954;SDS011;20233;50.804;7.126;2023-04-19T02:54:55;7.90;;;5.68;;
33954;SDS011;20233;50.804;7.126;2023-04-19T02:57:21;7.70;;;5.45;;
33954;SDS011;20233;50.804;7.126;2023-04-19T02:59:46;9.88;;;5.55;;
33954;SDS011;20233;50.804;7.126;2023-04-19T03:02:12;7.72;;;5.47;;
33954;SDS011;20233;50.804;7.126;2023-04-19T03:04:37;8.48;;;5.90;;
33954;SDS011;20233;50.804;7.126;2023-04-19T03:07:03;9.07;;;5.53;;
33954;SDS011;20233;50.804;7.126;2023-04-19T03:09:28;8.00;;;5.13;;
33954;SDS011;20233;50.804;7.126;2023-04-19T03:11:54;10.52;;;6.40;;
33954;SDS011;20233;50.804;7.126;2023-04-19T03:14:20;7.57;;;5.53;;
33954;SDS011;20233;50.804;7.126;2023-04-19T03:16:45;9.10;;;5.60;;
33954;SDS011;20233;50.804;7.126;2023-04-19T03:19:11;7.97;;;5.47;;
33954;SDS011;20233;50.804;7.126;2023-04-19T03:21:36;7.65;;;5.40;;
33954;SDS011;20233;50.804;7.126;2023-04-19T03:24:02;8.95;;;6.05;;
33954;SDS011;20233;50.804;7.126;2023-04-19T03:26:27;8.40;;;5.72;;
33954;SDS011;20233;50.804;7.126;2023-04-19T03:28:53;7.50;;;5.40;;
33954;SDS011;20233;50.804;7.126;2023-04-19T03:31:18;9.25;;;4.90;;
33954;SDS011;20233;50.804;7.126;2023-04-19T03:33:44;9.40;;;6.25;;
33954;SDS011;20233;50.804;7.126;2023-04-19T03:36:10;8.65;;;5.88;;
33954;SDS011;20233;50.804;7.126;2023-04-19T03:38:35;8.00;;;5.95;;
33954;SDS011;20233;50.804;7.126;2023-04-19T03:41:02;7.80;;;5.38;;
33954;SDS011;20233;50.804;7.126;2023-04-19T03:43:28;8.48;;;5.10;;
33954;SDS011;20233;50.804;7.126;2023-04-19T03:45:53;9.57;;;6.43;;
33954;SDS011;20233;50.804;7.126;2023-04-19T03:48:20;10.38;;;6.20;;
33954;SDS011;20233;50.804;7.126;2023-04-19T03:50:46;9.15;;;5.70;;
33954;SDS011;20233;50.804;7.126;2023-04-19T03:53:12;10.98;;;6.35;;
33954;SDS011;20233;50.804;7.126;2023-04-19T03:55:41;8.30;;;5.78;;
33954;SDS011;20233;50.804;7.126;2023-04-19T03:58:07;8.73;;;6.20;;
33954;SDS011;20233;50.804;7.126;2023-04-19T04:00:34;9.18;;;5.70;;
33954;SDS011;20233;50.804;7.126;2023-04-19T04:03:01;8.02;;;5.93;;
33954;SDS011;20233;50.804;7.126;2023-04-19T04:05:27;10.95;;;5.50;;
33954;SDS011;20233;50.804;7.126;2023-04-19T04:07:54;9.75;;;5.95;;
33954;SDS011;20233;50.804;7.126;2023-04-19T04:10:22;7.50;;;5.15;;
33954;SDS011;20233;50.804;7.126;2023-04-19T04:12:48;9.57;;;6.28;;
33954;SDS011;20233;50.804;7.126;2023-04-19T04:15:14;9.27;;;5.85;;
33954;SDS011;20233;50.804;7.126;2023-04-19T04:17:40;9.30;;;5.45;;
33954;SDS011;20233;50.804;7.126;2023-04-19T04:20:08;8.00;;;5.90;;
33954;SDS011;20233;50.804;7.126;2023-04-19T04:22:41;8.45;;;5.72;;
33954;SDS011;20233;50.804;7.126;2023-04-19T04:25:10;9.98;;;6.13;;
33954;SDS011;20233;50.804;7.126;2023-04-19T04:27:37;8.18;;;6.18;;
33954;SDS011;20233;50.804;7.126;2023-04-19T04:30:06;8.88;;;6.65;;
33954;SDS011;20233;50.804;7.126;2023-04-19T04:32:32;9.43;;;5.80;;
33954;SDS011;20233;50.804;7.126;2023-04-19T04:35:03;11.32;;;7.22;;
33954;SDS011;20233;50.804;7.126;2023-04-19T04:37:30;8.88;;;6.28;;
33954;SDS011;20233;50.804;7.126;2023-04-19T04:40:00;10.23;;;6.90;;
33954;SDS011;20233;50.804;7.126;2023-04-19T04:42:30;10.15;;;7.00;;
33954;SDS011;20233;50.804;7.126;2023-04-19T04:44:57;8.80;;;6.25;;
33954;SDS011;20233;50.804;7.126;2023-04-19T04:47:32;9.25;;;6.45;;
33954;SDS011;20233;50.804;7.126;2023-04-19T04:49:59;9.10;;;6.60;;
33954;SDS011;20233;50.804;7.126;2023-04-19T04:52:26;10.32;;;6.90;;
33954;SDS011;20233;50.804;7.126;2023-04-19T04:54:53;10.18;;;7.60;;
33954;SDS011;20233;50.804;7.126;2023-04-19T04:57:20;9.00;;;6.18;;
33954;SDS011;20233;50.804;7.126;2023-04-19T04:59:47;11.95;;;7.18;;
33954;SDS011;20233;50.804;7.126;2023-04-19T05:02:14;11.10;;;7.20;;
33954;SDS011;20233;50.804;7.126;2023-04-19T05:04:41;10.00;;;7.18;;
33954;SDS011;20233;50.804;7.126;2023-04-19T05:07:08;12.45;;;6.93;;
33954;SDS011;20233;50.804;7.126;2023-04-19T05:09:35;10.50;;;7.95;;
33954;SDS011;20233;50.804;7.126;2023-04-19T05:12:01;10.57;;;7.53;;
33954;SDS011;20233;50.804;7.126;2023-04-19T05:14:28;11.15;;;8.18;;
33954;SDS011;20233;50.804;7.126;2023-04-19T05:16:55;10.32;;;7.80;;
33954;SDS011;20233;50.804;7.126;2023-04-19T05:19:22;10.65;;;7.25;;
33954;SDS011;20233;50.804;7.126;2023-04-19T05:21:49;11.30;;;7.35;;
33954;SDS011;20233;50.804;7.126;2023-04-19T05:24:16;12.18;;;8.05;;
33954;SDS011;20233;50.804;7.126;2023-04-19T05:26:43;13.68;;;8.82;;
33954;SDS011;20233;50.804;7.126;2023-04-19T05:29:09;10.50;;;7.30;;
33954;SDS011;20233;50.804;7.126;2023-04-19T05:31:36;14.00;;;8.10;;
33954;SDS011;20233;50.804;7.126;2023-04-19T05:34:02;10.25;;;7.07;;
33954;SDS011;20233;50.804;7.126;2023-04-19T05:36:29;11.52;;;7.25;;
33954;SDS011;20233;50.804;7.126;2023-04-19T05:39:00;13.55;;;7.93;;
33954;SDS011;20233;50.804;7.126;2023-04-19T05:41:27;11.35;;;7.63;;
33954;SDS011;20233;50.804;7.126;2023-04-19T05:43:54;11.15;;;7.43;;
33954;SDS011;20233;50.804;7.126;2023-04-19T05:46:21;12.52;;;7.35;;
33954;SDS011;20233;50.804;7.126;2023-04-19T05:48:48;10.23;;;7.03;;
33954;SDS011;20233;50.804;7.126;2023-04-19T05:51:16;11.05;;;7.78;;
33954;SDS011;20233;50.804;7.126;2023-04-19T05:53:44;10.27;;;7.20;;
33954;SDS011;20233;50.804;7.126;2023-04-19T05:56:10;10.77;;;7.30;;
33954;SDS011;20233;50.804;7.126;2023-04-19T05:58:36;11.02;;;7.88;;
33954;SDS011;20233;50.804;7.126;2023-04-19T06:01:01;11.60;;;6.60;;
33954;SDS011;20233;50.804;7.126;2023-04-19T06:03:28;10.45;;;7.75;;
33954;SDS011;20233;50.804;7.126;2023-04-19T06:05:54;11.57;;;7.60;;
33954;SDS011;20233;50.804;7.126;2023-04-19T06:08:19;11.48;;;7.15;;
33954;SDS011;20233;50.804;7.126;2023-04-19T06:10:45;10.07;;;7.18;;
33954;SDS011;20233;50.804;7.126;2023-04-19T06:13:13;13.30;;;8.77;;
33954;SDS011;20233;50.804;7.126;2023-04-19T06:15:39;11.93;;;8.15;;
33954;SDS011;20233;50.804;7.126;2023-04-19T06:18:05;14.52;;;9.48;;
33954;SDS011;20233;50.804;7.126;2023-04-19T06:20:37;12.57;;;8.40;;
33954;SDS011;20233;50.804;7.126;2023-04-19T06:23:03;11.48;;;8.10;;
33954;SDS011;20233;50.804;7.126;2023-04-19T06:25:29;13.40;;;8.55;;
33954;SDS011;20233;50.804;7.126;2023-04-19T06:27:55;16.70;;;8.95;;
33954;SDS011;20233;50.804;7.126;2023-04-19T06:30:21;13.65;;;8.50;;
33954;SDS011;20233;50.804;7.126;2023-04-19T06:32:46;12.30;;;9.13;;
33954;SDS011;20233;50.804;7.126;2023-04-19T06:35:12;13.98;;;8.48;;
33954;SDS011;20233;50.804;7.126;2023-04-19T06:37:39;12.52;;;8.77;;
33954;SDS011;20233;50.804;7.126;2023-04-19T06:40:04;11.10;;;8.50;;
33954;SDS011;20233;50.804;7.126;2023-04-19T06:42:32;12.63;;;9.43;;
33954;SDS011;20233;50.804;7.126;2023-04-19T06:45:01;16.13;;;10.27;;
33954;SDS011;20233;50.804;7.126;2023-04-19T06:47:27;12.65;;;8.68;;
33954;SDS011;20233;50.804;7.126;2023-04-19T06:49:53;13.30;;;8.88;;
33954;SDS011;20233;50.804;7.126;2023-04-19T06:52:19;16.88;;;9.98;;
33954;SDS011;20233;50.804;7.126;2023-04-19T06:54:48;12.30;;;9.10;;
33954;SDS011;20233;50.804;7.126;2023-04-19T06:57:14;12.80;;;9.23;;
33954;SDS011;20233;50.804;7.126;2023-04-19T06:59:40;12.90;;;9.13;;
33954;SDS011;20233;50.804;7.126;2023-04-19T07:02:06;18.42;;;9.55;;
33954;SDS011;20233;50.804;7.126;2023-04-19T07:04:32;14.10;;;10.23;;
33954;SDS011;20233;50.804;7.126;2023-04-19T07:06:58;12.63;;;9.75;;
33954;SDS011;20233;50.804;7.126;2023-04-19T07:09:24;12.75;;;9.50;;
33954;SDS011;20233;50.804;7.126;2023-04-19T07:11:50;13.93;;;9.65;;
33954;SDS011;20233;50.804;7.126;2023-04-19T07:14:16;14.90;;;9.57;;
33954;SDS011;20233;50.804;7.126;2023-04-19T07:16:45;13.35;;;8.85;;
33954;SDS011;20233;50.804;7.126;2023-04-19T07:19:11;11.45;;;8.80;;
33954;SDS011;20233;50.804;7.126;2023-04-19T07:21:37;13.48;;;9.00;;
33954;SDS011;20233;50.804;7.126;2023-04-19T07:24:03;12.57;;;9.27;;
33954;SDS011;20233;50.804;7.126;2023-04-19T07:26:30;12.13;;;8.18;;
33954;SDS011;20233;50.804;7.126;2023-04-19T07:28:56;13.32;;;9.52;;
33954;SDS011;20233;50.804;7.126;2023-04-19T07:31:23;10.50;;;8.23;;
33954;SDS011;20233;50.804;7.126;2023-04-19T07:33:49;12.13;;;8.43;;
33954;SDS011;20233;50.804;7.126;2023-04-19T07:36:15;10.45;;;8.93;;
33954;SDS011;20233;50.804;7.126;2023-04-19T07:38:40;10.00;;;7.45;;
33954;SDS011;20233;50.804;7.126;2023-04-19T07:41:06;10.80;;;7.55;;
33954;SDS011;20233;50.804;7.126;2023-04-19T07:43:32;11.75;;;7.82;;
33954;SDS011;20233;50.804;7.126;2023-04-19T07:45:58;11.60;;;8.10;;
33954;SDS011;20233;50.804;7.126;2023-04-19T07:48:24;11.77;;;7.63;;
33954;SDS011;20233;50.804;7.126;2023-04-19T07:50:49;8.77;;;7.38;;
33954;SDS011;20233;50.804;7.126;2023-04-19T07:53:15;11.60;;;7.47;;
33954;SDS011;20233;50.804;7.126;2023-04-19T07:55:42;10.50;;;7.13;;
33954;SDS011;20233;50.804;7.126;2023-04-19T07:58:07;9.45;;;7.18;;
33954;SDS011;20233;50.804;7.126;2023-04-19T08:00:33;10.93;;;7.13;;
33954;SDS011;20233;50.804;7.126;2023-04-19T08:03:00;8.65;;;6.57;;
33954;SDS011;20233;50.804;7.126;2023-04-19T08:05:26;7.38;;;6.13;;
33954;SDS011;20233;50.804;7.126;2023-04-19T08:07:53;7.78;;;5.25;;
33954;SDS011;20233;50.804;7.126;2023-04-19T08:10:18;9.23;;;5.68;;
33954;SDS011;20233;50.804;7.126;2023-04-19T08:12:44;7.85;;;5.63;;
33954;SDS011;20233;50.804;7.126;2023-04-19T08:15:10;10.23;;;5.70;;
33954;SDS011;20233;50.804;7.126;2023-04-19T08:17:36;9.30;;;5.15;;
33954;SDS011;20233;50.804;7.126;2023-04-19T08:20:01;6.88;;;4.55;;
33954;SDS011;20233;50.804;7.126;2023-04-19T08:22:27;7.88;;;4.85;;
33954;SDS011;20233;50.804;7.126;2023-04-19T08:24:53;7.07;;;4.72;;
33954;SDS011;20233;50.804;7.126;2023-04-19T08:27:19;6.88;;;4.45;;
33954;SDS011;20233;50.804;7.126;2023-04-19T08:29:45;7.15;;;4.55;;
33954;SDS011;20233;50.804;7.126;2023-04-19T08:32:11;8.18;;;4.88;;
33954;SDS011;20233;50.804;7.126;2023-04-19T08:34:37;7.80;;;4.40;;
33954;SDS011;20233;50.804;7.126;2023-04-19T08:37:04;7.35;;;4.82;;
33954;SDS011;20233;50.804;7.126;2023-04-19T08:39:32;6.47;;;4.78;;
33954;SDS011;20233;50.804;7.126;2023-04-19T08:42:07;5.82;;;4.10;;
33954;SDS011;20233;50.804;7.126;2023-04-19T08:44:35;6.43;;;4.22;;
33954;SDS011;20233;50.804;7.126;2023-04-19T08:47:04;8.00;;;4.03;;
33954;SDS011;20233;50.804;7.126;2023-04-19T08:49:34;6.47;;;3.92;;
33954;SDS011;20233;50.804;7.126;2023-04-19T08:52:02;6.63;;;3.97;;
33954;SDS011;20233;50.804;7.126;2023-04-19T08:54:30;5.40;;;3.33;;
33954;SDS011;20233;50.804;7.126;2023-04-19T08:56:59;8.90;;;4.63;;
33954;SDS011;20233;50.804;7.126;2023-04-19T08:59:26;7.72;;;3.60;;
33954;SDS011;20233;50.804;7.126;2023-04-19T09:01:52;5.93;;;3.50;;
33954;SDS011;20233;50.804;7.126;2023-04-19T09:04:20;6.68;;;3.80;;
33954;SDS011;20233;50.804;7.126;2023-04-19T09:06:46;6.38;;;3.53;;
33954;SDS011;20233;50.804;7.126;2023-04-19T09:09:19;5.88;;;3.90;;
33954;SDS011;20233;50.804;7.126;2023-04-19T09:11:44;6.03;;;3.88;;
33954;SDS011;20233;50.804;7.126;2023-04-19T09:14:13;6.00;;;3.38;;
33954;SDS011;20233;50.804;7.126;2023-04-19T09:16:39;5.15;;;3.35;;
33954;SDS011;20233;50.804;7.126;2023-04-19T09:19:06;7.32;;;3.28;;
33954;SDS011;20233;50.804;7.126;2023-04-19T09:21:33;4.18;;;2.80;;
33954;SDS011;20233;50.804;7.126;2023-04-19T09:23:59;5.57;;;3.00;;
33954;SDS011;20233;50.804;7.126;2023-04-19T09:26:26;6.80;;;3.13;;
33954;SDS011;20233;50.804;7.126;2023-04-19T09:29:00;4.95;;;3.10;;
33954;SDS011;20233;50.804;7.126;2023-04-19T09:31:28;4.78;;;3.03;;
33954;SDS011;20233;50.804;7.126;2023-04-19T09:33:54;6.43;;;2.88;;
33954;SDS011;20233;50.804;7.126;2023-04-19T09:36:26;9.05;;;2.60;;
33954;SDS011;20233;50.804;7.126;2023-04-19T09:38:53;6.85;;;2.33;;
33954;SDS011;20233;50.804;7.126;2023-04-19T09:41:19;3.55;;;2.40;;
33954;SDS011;20233;50.804;7.126;2023-04-19T09:43:45;7.65;;;2.60;;
33954;SDS011;20233;50.804;7.126;2023-04-19T09:51:41;5.10;;;2.40;;
33954;SDS011;20233;50.804;7.126;2023-04-19T09:54:08;5.38;;;2.53;;
33954;SDS011;20233;50.804;7.126;2023-04-19T09:56:35;4.55;;;2.40;;
33954;SDS011;20233;50.804;7.126;2023-04-19T09:59:01;4.38;;;2.30;;
33954;SDS011;20233;50.804;7.126;2023-04-19T10:01:28;3.35;;;1.90;;
33954;SDS011;20233;50.804;7.126;2023-04-19T10:03:58;4.90;;;2.10;;
33954;SDS011;20233;50.804;7.126;2023-04-19T10:06:24;4.20;;;1.50;;
33954;SDS011;20233;50.804;7.126;2023-04-19T10:08:51;4.38;;;1.80;;
33954;SDS011;20233;50.804;7.126;2023-04-19T10:11:22;2.90;;;1.73;;
33954;SDS011;20233;50.804;7.126;2023-04-19T10:13:52;4.53;;;2.22;;
33954;SDS011;20233;50.804;7.126;2023-04-19T10:16:22;4.45;;;2.30;;
33954;SDS011;20233;50.804;7.126;2023-04-19T10:18:48;3.63;;;2.30;;
33954;SDS011;20233;50.804;7.126;2023-04-19T10:21:16;6.22;;;2.90;;
33954;SDS011;20233;50.804;7.126;2023-04-19T10:23:45;3.88;;;2.08;;
33954;SDS011;20233;50.804;7.126;2023-04-19T10:26:11;4.22;;;1.95;;
33954;SDS011;20233;50.804;7.126;2023-04-19T10:28:37;5.95;;;3.30;;
33954;SDS011;20233;50.804;7.126;2023-04-19T10:31:03;4.18;;;2.65;;
33954;SDS011;20233;50.804;7.126;2023-04-19T10:33:30;4.47;;;2.42;;
33954;SDS011;20233;50.804;7.126;2023-04-19T10:36:00;4.25;;;2.67;;
33954;SDS011;20233;50.804;7.126;2023-04-19T10:38:36;5.65;;;2.30;;
33954;SDS011;20233;50.804;7.126;2023-04-19T10:41:03;4.40;;;2.85;;
33954;SDS011;20233;50.804;7.126;2023-04-19T10:43:35;5.55;;;2.67;;
33954;SDS011;20233;50.804;7.126;2023-04-19T10:46:15;4.45;;;2.67;;
33954;SDS011;20233;50.804;7.126;2023-04-19T10:48:56;4.60;;;2.35;;
33954;SDS011;20233;50.804;7.126;2023-04-19T10:51:48;5.03;;;2.65;;
33954;SDS011;20233;50.804;7.126;2023-04-19T10:59:24;4.78;;;2.85;;
33954;SDS011;20233;50.804;7.126;2023-04-19T11:01:54;3.53;;;2.45;;
33954;SDS011;20233;50.804;7.126;2023-04-19T11:04:22;5.90;;;2.67;;
33954;SDS011;20233;50.804;7.126;2023-04-19T11:07:09;4.90;;;2.58;;
33954;SDS011;20233;50.804;7.126;2023-04-19T11:09:38;5.07;;;2.45;;
33954;SDS011;20233;50.804;7.126;2023-04-19T11:12:12;5.35;;;2.20;;
33954;SDS011;20233;50.804;7.126;2023-04-19T11:14:40;5.05;;;2.58;;
33954;SDS011;20233;50.804;7.126;2023-04-19T11:19:43;4.32;;;2.78;;
33954;SDS011;20233;50.804;7.126;2023-04-19T11:22:09;4.10;;;2.53;;
33954;SDS011;20233;50.804;7.126;2023-04-19T11:24:35;4.60;;;2.80;;
33954;SDS011;20233;50.804;7.126;2023-04-19T11:27:01;6.35;;;2.38;;
33954;SDS011;20233;50.804;7.126;2023-04-19T11:29:32;4.85;;;2.28;;
33954;SDS011;20233;50.804;7.126;2023-04-19T11:31:58;6.45;;;2.33;;
33954;SDS011;20233;50.804;7.126;2023-04-19T11:34:25;4.78;;;2.25;;
33954;SDS011;20233;50.804;7.126;2023-04-19T11:36:52;4.70;;;2.20;;
33954;SDS011;20233;50.804;7.126;2023-04-19T11:39:17;4.65;;;1.88;;
33954;SDS011;20233;50.804;7.126;2023-04-19T11:41:43;3.08;;;1.60;;
33954;SDS011;20233;50.804;7.126;2023-04-19T11:44:17;4.07;;;2.03;;
33954;SDS011;20233;50.804;7.126;2023-04-19T11:47:05;2.63;;;1.17;;
33954;SDS011;20233;50.804;7.126;2023-04-19T11:49:30;1.77;;;0.85;;
33954;SDS011;20233;50.804;7.126;2023-04-19T11:51:58;2.58;;;1.25;;
33954;SDS011;20233;50.804;7.126;2023-04-19T11:54:24;3.13;;;1.17;;
33954;SDS011;20233;50.804;7.126;2023-04-19T11:57:00;1.80;;;0.70;;
33954;SDS011;20233;50.804;7.126;2023-04-19T11:59:30;2.03;;;0.93;;
33954;SDS011;20233;50.804;7.126;2023-04-19T12:02:03;2.25;;;0.68;;
33954;SDS011;20233;50.804;7.126;2023-04-19T12:04:29;2.67;;;1.05;;
33954;SDS011;20233;50.804;7.126;2023-04-19T12:06:55;1.98;;;0.55;;
33954;SDS011;20233;50.804;7.126;2023-04-19T12:09:22;2.03;;;0.60;;
33954;SDS011;20233;50.804;7.126;2023-04-19T12:11:48;3.08;;;0.50;;
33954;SDS011;20233;50.804;7.126;2023-04-19T12:14:15;2.42;;;0.60;;
33954;SDS011;20233;50.804;7.126;2023-04-19T12:17:05;2.53;;;0.50;;
33954;SDS011;20233;50.804;7.126;2023-04-19T12:19:36;2.38;;;0.68;;
33954;SDS011;20233;50.804;7.126;2023-04-19T12:22:07;2.28;;;0.30;;
33954;SDS011;20233;50.804;7.126;2023-04-19T12:24:33;3.80;;;0.68;;
33954;SDS011;20233;50.804;7.126;2023-04-19T12:26:59;2.13;;;0.47;;
33954;SDS011;20233;50.804;7.126;2023-04-19T12:29:25;4.55;;;0.90;;
33954;SDS011;20233;50.804;7.126;2023-04-19T12:31:51;1.60;;;0.52;;
33954;SDS011;20233;50.804;7.126;2023-04-19T12:34:16;2.72;;;0.70;;
33954;SDS011;20233;50.804;7.126;2023-04-19T12:36:42;1.80;;;0.50;;
33954;SDS011;20233;50.804;7.126;2023-04-19T12:39:07;2.13;;;0.55;;
33954;SDS011;20233;50.804;7.126;2023-04-19T12:41:33;1.45;;;0.45;;
33954;SDS011;20233;50.804;7.126;2023-04-19T12:43:59;3.63;;;0.30;;
33954;SDS011;20233;50.804;7.126;2023-04-19T12:46:24;2.78;;;0.38;;
33954;SDS011;20233;50.804;7.126;2023-04-19T12:48:50;1.63;;;0.50;;
33954;SDS011;20233;50.804;7.126;2023-04-19T12:51:15;1.23;;;0.40;;
33954;SDS011;20233;50.804;7.126;2023-04-19T12:53:41;1.55;;;0.40;;
33954;SDS011;20233;50.804;7.126;2023-04-19T12:56:12;1.85;;;0.47;;
33954;SDS011;20233;50.804;7.126;2023-04-19T12:58:39;2.10;;;0.55;;
33954;SDS011;20233;50.804;7.126;2023-04-19T13:01:05;2.42;;;0.50;;
33954;SDS011;20233;50.804;7.126;2023-04-19T13:03:31;1.65;;;0.40;;
33954;SDS011;20233;50.804;7.126;2023-04-19T13:06:00;3.00;;;0.50;;
33954;SDS011;20233;50.804;7.126;2023-04-19T13:08:26;1.98;;;0.32;;
33954;SDS011;20233;50.804;7.126;2023-04-19T13:10:52;2.85;;;0.30;;
33954;SDS011;20233;50.804;7.126;2023-04-19T13:13:19;1.83;;;0.50;;
33954;SDS011;20233;50.804;7.126;2023-04-19T13:15:44;1.48;;;0.30;;
33954;SDS011;20233;50.804;7.126;2023-04-19T13:18:10;3.38;;;0.40;;
33954;SDS011;20233;50.804;7.126;2023-04-19T13:20:36;3.90;;;0.70;;
33954;SDS011;20233;50.804;7.126;2023-04-19T13:23:02;3.28;;;0.80;;
33954;SDS011;20233;50.804;7.126;2023-04-19T13:25:28;1.90;;;0.50;;
33954;SDS011;20233;50.804;7.126;2023-04-19T13:27:53;2.15;;;0.40;;
33954;SDS011;20233;50.804;7.126;2023-04-19T13:30:19;1.13;;;0.28;;
33954;SDS011;20233;50.804;7.126;2023-04-19T13:32:44;2.38;;;0.93;;
33954;SDS011;20233;50.804;7.126;2023-04-19T13:35:10;4.50;;;0.60;;
33954;SDS011;20233;50.804;7.126;2023-04-19T13:37:35;1.85;;;0.52;;
33954;SDS011;20233;50.804;7.126;2023-04-19T13:40:01;2.85;;;0.70;;
33954;SDS011;20233;50.804;7.126;2023-04-19T13:42:28;3.42;;;0.75;;
33954;SDS011;20233;50.804;7.126;2023-04-19T13:44:54;3.75;;;0.63;;
33954;SDS011;20233;50.804;7.126;2023-04-19T13:47:19;2.28;;;0.40;;
33954;SDS011;20233;50.804;7.126;2023-04-19T13:49:45;2.13;;;0.77;;
33954;SDS011;20233;50.804;7.126;2023-04-19T13:52:16;1.98;;;0.90;;
33954;SDS011;20233;50.804;7.126;2023-04-19T13:54:42;5.10;;;0.98;;
33954;SDS011;20233;50.804;7.126;2023-04-19T13:57:07;3.55;;;0.82;;
33954;SDS011;20233;50.804;7.126;2023-04-19T13:59:33;1.92;;;0.98;;
33954;SDS011;20233;50.804;7.126;2023-04-19T14:02:01;2.75;;;1.02;;
33954;SDS011;20233;50.804;7.126;2023-04-19T14:04:27;1.45;;;0.57;;
33954;SDS011;20233;50.804;7.126;2023-04-19T14:06:52;3.63;;;0.88;;
33954;SDS011;20233;50.804;7.126;2023-04-19T14:09:18;2.63;;;0.88;;
33954;SDS011;20233;50.804;7.126;2023-04-19T14:11:44;3.40;;;0.88;;
33954;SDS011;20233;50.804;7.126;2023-04-19T14:14:09;3.45;;;1.15;;
33954;SDS011;20233;50.804;7.126;2023-04-19T14:16:35;3.33;;;1.17;;
33954;SDS011;20233;50.804;7.126;2023-04-19T14:19:00;3.17;;;0.95;;
33954;SDS011;20233;50.804;7.126;2023-04-19T14:21:26;3.53;;;0.73;;
33954;SDS011;20233;50.804;7.126;2023-04-19T14:23:52;6.53;;;1.33;;
33954;SDS011;20233;50.804;7.126;2023-04-19T14:26:18;3.05;;;1.27;;
33954;SDS011;20233;50.804;7.126;2023-04-19T14:28:43;4.53;;;1.17;;
33954;SDS011;20233;50.804;7.126;2023-04-19T14:31:09;7.25;;;1.30;;
33954;SDS011;20233;50.804;7.126;2023-04-19T14:33:34;4.03;;;1.17;;
33954;SDS011;20233;50.804;7.126;2023-04-19T14:36:00;4.45;;;1.27;;
33954;SDS011;20233;50.804;7.126;2023-04-19T14:38:25;4.43;;;1.10;;
33954;SDS011;20233;50.804;7.126;2023-04-19T14:40:51;3.22;;;1.10;;
33954;SDS011;20233;50.804;7.126;2023-04-19T14:43:17;3.53;;;1.77;;
33954;SDS011;20233;50.804;7.126;2023-04-19T14:45:42;3.00;;;0.98;;
33954;SDS011;20233;50.804;7.126;2023-04-19T14:48:08;5.95;;;1.05;;
33954;SDS011;20233;50.804;7.126;2023-04-19T14:50:33;5.70;;;1.30;;
33954;SDS011;20233;50.804;7.126;2023-04-19T14:52:59;4.63;;;1.70;;
33954;SDS011;20233;50.804;7.126;2023-04-19T14:55:24;2.42;;;0.88;;
33954;SDS011;20233;50.804;7.126;2023-04-19T14:57:51;4.13;;;1.38;;